sensor_id;sensor_type;location;lat;lon;timestamp;pressure;altitude;pressure_sealevel;temperature;humidity
61472;BME280;47337;54.068;12.114;2022-12-18T00:00:50;102690.03;;;-7.50;100.00
61472;BME280;47337;54.068;12.114;2022-12-18T00:03:17;102696.94;;;-7.49;100.00
61472;BME280;47337;54.068;12.114;2022-12-18T00:05:50;102702.03;;;-7.49;100.00
61472;BME280;47337;54.068;12.114;2022-12-18T00:08:19;102702.38;;;-7.46;100.00
61472;BME280;47337;54.068;12.114;2022-12-18T00:10:45;102694.22;;;-7.50;100.00
61472;BME280;47337;54.068;12.114;2022-12-18T00:13:12;102686.91;;;-7.47;100.00
61472;BME280;47337;54.068;12.114;2022-12-18T00:15:40;102686.00;;;-7.48;100.00
61472;BME280;47337;54.068;12.114;2022-12-18T00:18:08;102683.47;;;-7.48;100.00
61472;BME280;47337;54.068;12.114;2022-12-18T00:20:40;102685.63;;;-7.44;100.00
61472;BME280;47337;54.068;12.114;2022-12-18T00:23:06;102688.19;;;-7.44;100.00
61472;BME280;47337;54.068;12.114;2022-12-18T00:25:35;102698.69;;;-7.41;100.00
61472;BME280;47337;54.068;12.114;2022-12-18T00:28:03;102704.84;;;-7.31;100.00
61472;BME280;47337;54.068;12.114;2022-12-18T00:30:29;102698.31;;;-7.36;100.00
61472;BME280;47337;54.068;12.114;2022-12-18T00:32:57;102702.22;;;-7.47;100.00
61472;BME280;47337;54.068;12.114;2022-12-18T00:35:22;102701.66;;;-7.45;100.00
61472;BME280;47337;54.068;12.114;2022-12-18T00:37:48;102698.50;;;-7.35;100.00
61472;BME280;47337;54.068;12.114;2022-12-18T00:40:16;102701.59;;;-7.38;100.00
61472;BME280;47337;54.068;12.114;2022-12-18T00:42:41;102704.41;;;-7.50;100.00
61472;BME280;47337;54.068;12.114;2022-12-18T00:45:29;102696.03;;;-7.49;100.00
61472;BME280;47337;54.068;12.114;2022-12-18T00:47:55;102701.56;;;-7.60;100.00
61472;BME280;47337;54.068;12.114;2022-12-18T00:50:22;102698.69;;;-7.70;100.00
61472;BME280;47337;54.068;12.114;2022-12-18T00:52:51;102705.50;;;-7.78;100.00
61472;BME280;47337;54.068;12.114;2022-12-18T00:55:17;102699.13;;;-7.82;100.00
61472;BME280;47337;54.068;12.114;2022-12-18T00:57:43;102702.22;;;-7.77;100.00
61472;BME280;47337;54.068;12.114;2022-12-18T01:00:11;102700.06;;;-7.88;100.00
61472;BME280;47337;54.068;12.114;2022-12-18T01:02:38;102686.97;;;-7.91;100.00
61472;BME280;47337;54.068;12.114;2022-12-18T01:05:04;102694.63;;;-7.91;100.00
61472;BME280;47337;54.068;12.114;2022-12-18T01:07:32;102702.25;;;-7.91;100.00
61472;BME280;47337;54.068;12.114;2022-12-18T01:10:00;102697.88;;;-7.85;100.00
61472;BME280;47337;54.068;12.114;2022-12-18T01:12:25;102698.31;;;-7.66;100.00
61472;BME280;47337;54.068;12.114;2022-12-18T01:14:51;102708.59;;;-7.51;100.00
61472;BME280;47337;54.068;12.114;2022-12-18T01:17:19;102706.84;;;-7.59;100.00
61472;BME280;47337;54.068;12.114;2022-12-18T01:19:46;102713.09;;;-7.71;100.00
61472;BME280;47337;54.068;12.114;2022-12-18T01:22:12;102726.97;;;-7.83;100.00
61472;BME280;47337;54.068;12.114;2022-12-18T01:24:37;102736.66;;;-7.88;100.00
61472;BME280;47337;54.068;12.114;2022-12-18T01:27:02;102736.63;;;-7.81;100.00
61472;BME280;47337;54.068;12.114;2022-12-18T01:29:28;102737.34;;;-7.74;100.00
61472;BME280;47337;54.068;12.114;2022-12-18T01:31:55;102744.56;;;-7.63;100.00
61472;BME280;47337;54.068;12.114;2022-12-18T01:34:22;102737.72;;;-7.49;100.00
61472;BME280;47337;54.068;12.114;2022-12-18T01:36:47;102729.31;;;-7.41;100.00
61472;BME280;47337;54.068;12.114;2022-12-18T01:39:14;102732.16;;;-7.30;100.00
61472;BME280;47337;54.068;12.114;2022-12-18T01:41:40;102733.34;;;-7.20;100.00
61472;BME280;47337;54.068;12.114;2022-12-18T01:47:40;102727.75;;;-7.24;100.00
61472;BME280;47337;54.068;12.114;2022-12-18T01:50:18;102738.00;;;-7.31;100.00
61472;BME280;47337;54.068;12.114;2022-12-18T01:52:50;102747.00;;;-7.42;100.00
61472;BME280;47337;54.068;12.114;2022-12-18T01:55:19;102742.09;;;-7.48;100.00
61472;BME280;47337;54.068;12.114;2022-12-18T01:57:46;102746.53;;;-7.54;100.00
61472;BME280;47337;54.068;12.114;2022-12-18T02:00:17;102738.50;;;-7.57;100.00
61472;BME280;47337;54.068;12.114;2022-12-18T02:02:46;102734.69;;;-7.60;100.00
61472;BME280;47337;54.068;12.114;2022-12-18T02:05:16;102734.38;;;-7.70;100.00
61472;BME280;47337;54.068;12.114;2022-12-18T02:11:00;102726.59;;;-7.79;100.00
61472;BME280;47337;54.068;12.114;2022-12-18T02:13:51;102730.28;;;-7.84;100.00
61472;BME280;47337;54.068;12.114;2022-12-18T02:16:33;102713.53;;;-7.89;100.00
61472;BME280;47337;54.068;12.114;2022-12-18T02:19:26;102708.88;;;-8.00;100.00
61472;BME280;47337;54.068;12.114;2022-12-18T02:22:18;102700.84;;;-8.03;100.00
61472;BME280;47337;54.068;12.114;2022-12-18T02:27:37;102705.63;;;-8.14;100.00
61472;BME280;47337;54.068;12.114;2022-12-18T02:30:05;102694.34;;;-8.08;100.00
61472;BME280;47337;54.068;12.114;2022-12-18T02:32:38;102692.56;;;-8.17;100.00
61472;BME280;47337;54.068;12.114;2022-12-18T02:35:09;102697.66;;;-8.17;100.00
61472;BME280;47337;54.068;12.114;2022-12-18T02:37:36;102706.94;;;-8.17;100.00
61472;BME280;47337;54.068;12.114;2022-12-18T02:40:05;102708.56;;;-8.18;100.00
61472;BME280;47337;54.068;12.114;2022-12-18T02:42:33;102711.84;;;-8.19;100.00
61472;BME280;47337;54.068;12.114;2022-12-18T02:45:04;102718.34;;;-8.14;100.00
61472;BME280;47337;54.068;12.114;2022-12-18T02:47:32;102717.97;;;-8.02;100.00
61472;BME280;47337;54.068;12.114;2022-12-18T02:57:53;102692.78;;;-7.03;100.00
61472;BME280;47337;54.068;12.114;2022-12-18T03:00:28;102697.31;;;-7.23;100.00
61472;BME280;47337;54.068;12.114;2022-12-18T03:08:06;102738.97;;;-7.82;100.00
61472;BME280;47337;54.068;12.114;2022-12-18T03:10:36;102741.22;;;-7.85;100.00
61472;BME280;47337;54.068;12.114;2022-12-18T03:13:21;102735.38;;;-7.91;100.00
61472;BME280;47337;54.068;12.114;2022-12-18T03:15:51;102737.13;;;-7.69;100.00
61472;BME280;47337;54.068;12.114;2022-12-18T03:18:22;102735.28;;;-7.63;100.00
61472;BME280;47337;54.068;12.114;2022-12-18T03:20:51;102745.81;;;-7.30;100.00
61472;BME280;47337;54.068;12.114;2022-12-18T03:23:24;102737.84;;;-7.33;100.00
61472;BME280;47337;54.068;12.114;2022-12-18T03:25:53;102747.97;;;-7.26;100.00
61472;BME280;47337;54.068;12.114;2022-12-18T03:28:23;102746.41;;;-7.40;100.00
61472;BME280;47337;54.068;12.114;2022-12-18T03:30:57;102750.72;;;-7.61;100.00
61472;BME280;47337;54.068;12.114;2022-12-18T03:33:29;102749.19;;;-7.82;100.00
61472;BME280;47337;54.068;12.114;2022-12-18T03:36:00;102758.53;;;-7.97;100.00
61472;BME280;47337;54.068;12.114;2022-12-18T03:38:26;102756.91;;;-7.96;100.00
61472;BME280;47337;54.068;12.114;2022-12-18T03:46:28;102763.13;;;-8.16;100.00
61472;BME280;47337;54.068;12.114;2022-12-18T03:49:09;102755.50;;;-8.23;100.00
61472;BME280;47337;54.068;12.114;2022-12-18T03:51:50;102758.47;;;-8.34;100.00
61472;BME280;47337;54.068;12.114;2022-12-18T03:54:18;102763.56;;;-8.34;100.00
61472;BME280;47337;54.068;12.114;2022-12-18T03:56:48;102752.28;;;-8.36;100.00
61472;BME280;47337;54.068;12.114;2022-12-18T03:59:17;102766.13;;;-8.41;100.00
61472;BME280;47337;54.068;12.114;2022-12-18T04:01:49;102759.19;;;-8.35;100.00
61472;BME280;47337;54.068;12.114;2022-12-18T04:04:17;102764.28;;;-8.35;100.00
61472;BME280;47337;54.068;12.114;2022-12-18T04:06:47;102779.75;;;-8.33;100.00
61472;BME280;47337;54.068;12.114;2022-12-18T04:09:15;102761.00;;;-8.27;100.00
61472;BME280;47337;54.068;12.114;2022-12-18T04:11:41;102774.78;;;-8.25;100.00
61472;BME280;47337;54.068;12.114;2022-12-18T04:14:09;102772.28;;;-8.32;100.00
61472;BME280;47337;54.068;12.114;2022-12-18T04:16:35;102781.91;;;-8.29;100.00
61472;BME280;47337;54.068;12.114;2022-12-18T04:19:01;102786.25;;;-8.21;100.00
61472;BME280;47337;54.068;12.114;2022-12-18T04:21:26;102795.88;;;-8.26;100.00
61472;BME280;47337;54.068;12.114;2022-12-18T04:23:54;102789.34;;;-8.31;100.00
61472;BME280;47337;54.068;12.114;2022-12-18T04:26:19;102799.72;;;-8.29;100.00
61472;BME280;47337;54.068;12.114;2022-12-18T04:28:45;102790.97;;;-8.24;100.00
61472;BME280;47337;54.068;12.114;2022-12-18T04:31:11;102790.25;;;-8.16;100.00
61472;BME280;47337;54.068;12.114;2022-12-18T04:33:36;102796.22;;;-8.16;100.00
61472;BME280;47337;54.068;12.114;2022-12-18T04:36:02;102792.63;;;-8.18;100.00
61472;BME280;47337;54.068;12.114;2022-12-18T04:38:27;102782.75;;;-8.15;100.00
61472;BME280;47337;54.068;12.114;2022-12-18T04:40:52;102779.66;;;-8.12;100.00
61472;BME280;47337;54.068;12.114;2022-12-18T04:43:18;102785.53;;;-8.20;100.00
61472;BME280;47337;54.068;12.114;2022-12-18T04:45:43;102785.34;;;-8.22;100.00
61472;BME280;47337;54.068;12.114;2022-12-18T04:48:08;102778.41;;;-8.23;100.00
61472;BME280;47337;54.068;12.114;2022-12-18T04:50:34;102781.31;;;-8.13;100.00
61472;BME280;47337;54.068;12.114;2022-12-18T04:52:59;102778.25;;;-7.73;100.00
61472;BME280;47337;54.068;12.114;2022-12-18T04:55:25;102777.44;;;-7.44;100.00
61472;BME280;47337;54.068;12.114;2022-12-18T04:57:51;102784.00;;;-7.46;100.00
61472;BME280;47337;54.068;12.114;2022-12-18T05:00:16;102780.72;;;-7.52;100.00
61472;BME280;47337;54.068;12.114;2022-12-18T05:02:44;102779.84;;;-7.59;100.00
61472;BME280;47337;54.068;12.114;2022-12-18T05:05:10;102787.16;;;-7.62;100.00
61472;BME280;47337;54.068;12.114;2022-12-18T05:07:35;102799.25;;;-7.76;100.00
61472;BME280;47337;54.068;12.114;2022-12-18T05:10:01;102794.72;;;-7.92;100.00
61472;BME280;47337;54.068;12.114;2022-12-18T05:12:26;102798.22;;;-8.13;100.00
61472;BME280;47337;54.068;12.114;2022-12-18T05:14:54;102813.03;;;-8.32;100.00
61472;BME280;47337;54.068;12.114;2022-12-18T05:17:19;102805.22;;;-8.40;100.00
61472;BME280;47337;54.068;12.114;2022-12-18T05:19:45;102801.94;;;-8.46;100.00
61472;BME280;47337;54.068;12.114;2022-12-18T05:22:10;102807.56;;;-8.35;100.00
61472;BME280;47337;54.068;12.114;2022-12-18T05:24:36;102821.69;;;-8.16;100.00
61472;BME280;47337;54.068;12.114;2022-12-18T05:27:04;102820.59;;;-8.10;100.00
61472;BME280;47337;54.068;12.114;2022-12-18T05:29:34;102805.63;;;-7.93;100.00
61472;BME280;47337;54.068;12.114;2022-12-18T05:32:00;102804.66;;;-7.72;100.00
61472;BME280;47337;54.068;12.114;2022-12-18T05:34:25;102804.28;;;-7.68;100.00
61472;BME280;47337;54.068;12.114;2022-12-18T05:36:50;102817.66;;;-7.85;100.00
61472;BME280;47337;54.068;12.114;2022-12-18T05:39:16;102820.59;;;-8.03;100.00
61472;BME280;47337;54.068;12.114;2022-12-18T05:41:41;102805.72;;;-8.22;100.00
61472;BME280;47337;54.068;12.114;2022-12-18T05:44:07;102806.03;;;-7.97;100.00
61472;BME280;47337;54.068;12.114;2022-12-18T05:46:32;102804.25;;;-8.05;100.00
61472;BME280;47337;54.068;12.114;2022-12-18T05:49:00;102800.03;;;-8.05;100.00
61472;BME280;47337;54.068;12.114;2022-12-18T05:51:26;102788.19;;;-8.04;100.00
61472;BME280;47337;54.068;12.114;2022-12-18T05:53:52;102784.56;;;-7.99;100.00
61472;BME280;47337;54.068;12.114;2022-12-18T05:56:22;102791.47;;;-7.98;100.00
61472;BME280;47337;54.068;12.114;2022-12-18T05:58:56;102789.28;;;-8.02;100.00
61472;BME280;47337;54.068;12.114;2022-12-18T06:01:25;102792.97;;;-8.22;100.00
61472;BME280;47337;54.068;12.114;2022-12-18T06:03:54;102796.25;;;-8.23;100.00
61472;BME280;47337;54.068;12.114;2022-12-18T06:06:25;102785.97;;;-8.38;100.00
61472;BME280;47337;54.068;12.114;2022-12-18T06:08:54;102785.59;;;-8.41;100.00
61472;BME280;47337;54.068;12.114;2022-12-18T06:11:22;102793.22;;;-8.41;100.00
61472;BME280;47337;54.068;12.114;2022-12-18T06:13:54;102794.13;;;-8.55;100.00
61472;BME280;47337;54.068;12.114;2022-12-18T06:16:20;102796.69;;;-8.76;100.00
61472;BME280;47337;54.068;12.114;2022-12-18T06:18:45;102789.06;;;-8.91;100.00
61472;BME280;47337;54.068;12.114;2022-12-18T06:21:11;102786.88;;;-9.02;100.00
61472;BME280;47337;54.068;12.114;2022-12-18T06:23:37;102789.00;;;-9.19;100.00
61472;BME280;47337;54.068;12.114;2022-12-18T06:26:07;102798.81;;;-9.22;100.00
61472;BME280;47337;54.068;12.114;2022-12-18T06:28:32;102806.38;;;-9.36;100.00
61472;BME280;47337;54.068;12.114;2022-12-18T06:31:00;102799.28;;;-9.46;100.00
61472;BME280;47337;54.068;12.114;2022-12-18T06:33:29;102816.88;;;-9.54;100.00
61472;BME280;47337;54.068;12.114;2022-12-18T06:36:00;102828.28;;;-9.58;100.00
61472;BME280;47337;54.068;12.114;2022-12-18T06:38:31;102833.56;;;-9.56;100.00
61472;BME280;47337;54.068;12.114;2022-12-18T06:40:57;102821.56;;;-9.57;100.00
61472;BME280;47337;54.068;12.114;2022-12-18T06:43:22;102815.41;;;-9.52;100.00
61472;BME280;47337;54.068;12.114;2022-12-18T06:45:48;102825.22;;;-9.55;100.00
61472;BME280;47337;54.068;12.114;2022-12-18T06:48:20;102828.47;;;-9.56;100.00
61472;BME280;47337;54.068;12.114;2022-12-18T06:50:46;102812.28;;;-9.64;100.00
61472;BME280;47337;54.068;12.114;2022-12-18T06:53:11;102809.75;;;-9.64;100.00
61472;BME280;47337;54.068;12.114;2022-12-18T06:55:37;102818.06;;;-9.10;100.00
61472;BME280;47337;54.068;12.114;2022-12-18T06:58:02;102811.41;;;-8.81;100.00
61472;BME280;47337;54.068;12.114;2022-12-18T07:00:30;102819.75;;;-8.68;100.00
61472;BME280;47337;54.068;12.114;2022-12-18T07:02:57;102819.22;;;-8.65;100.00
61472;BME280;47337;54.068;12.114;2022-12-18T07:05:24;102825.22;;;-8.65;100.00
61472;BME280;47337;54.068;12.114;2022-12-18T07:07:49;102819.41;;;-8.64;100.00
61472;BME280;47337;54.068;12.114;2022-12-18T07:10:15;102817.94;;;-8.55;100.00
61472;BME280;47337;54.068;12.114;2022-12-18T07:12:40;102821.41;;;-8.54;100.00
61472;BME280;47337;54.068;12.114;2022-12-18T07:15:09;102814.88;;;-8.52;100.00
61472;BME280;47337;54.068;12.114;2022-12-18T07:17:38;102818.31;;;-8.52;100.00
61472;BME280;47337;54.068;12.114;2022-12-18T07:20:03;102822.16;;;-8.69;100.00
61472;BME280;47337;54.068;12.114;2022-12-18T07:22:29;102824.09;;;-8.88;100.00
61472;BME280;47337;54.068;12.114;2022-12-18T07:24:55;102832.78;;;-9.00;100.00
61472;BME280;47337;54.068;12.114;2022-12-18T07:27:20;102821.38;;;-8.97;100.00
61472;BME280;47337;54.068;12.114;2022-12-18T07:29:50;102837.91;;;-8.86;100.00
61472;BME280;47337;54.068;12.114;2022-12-18T07:32:16;102835.38;;;-8.79;100.00
61472;BME280;47337;54.068;12.114;2022-12-18T07:34:41;102828.50;;;-8.80;100.00
61472;BME280;47337;54.068;12.114;2022-12-18T07:37:07;102824.13;;;-8.74;100.00
61472;BME280;47337;54.068;12.114;2022-12-18T07:39:34;102831.03;;;-8.73;100.00
61472;BME280;47337;54.068;12.114;2022-12-18T07:41:59;102834.50;;;-8.79;100.00
61472;BME280;47337;54.068;12.114;2022-12-18T07:44:43;102838.09;;;-8.92;100.00
61472;BME280;47337;54.068;12.114;2022-12-18T07:47:09;102841.34;;;-9.07;100.00
61472;BME280;47337;54.068;12.114;2022-12-18T07:49:34;102841.34;;;-9.00;100.00
61472;BME280;47337;54.068;12.114;2022-12-18T07:52:00;102847.19;;;-8.87;100.00
61472;BME280;47337;54.068;12.114;2022-12-18T07:54:27;102860.66;;;-8.80;100.00
61472;BME280;47337;54.068;12.114;2022-12-18T07:56:55;102857.22;;;-8.74;100.00
61472;BME280;47337;54.068;12.114;2022-12-18T07:59:23;102866.81;;;-8.78;100.00
61472;BME280;47337;54.068;12.114;2022-12-18T08:01:53;102865.78;;;-8.59;100.00
61472;BME280;47337;54.068;12.114;2022-12-18T08:04:21;102862.88;;;-8.41;100.00
61472;BME280;47337;54.068;12.114;2022-12-18T08:06:47;102865.94;;;-8.29;100.00
61472;BME280;47337;54.068;12.114;2022-12-18T08:09:12;102861.19;;;-8.12;100.00
61472;BME280;47337;54.068;12.114;2022-12-18T08:11:38;102857.16;;;-7.89;100.00
61472;BME280;47337;54.068;12.114;2022-12-18T08:14:03;102853.66;;;-7.75;100.00
61472;BME280;47337;54.068;12.114;2022-12-18T08:16:29;102857.28;;;-7.66;100.00
61472;BME280;47337;54.068;12.114;2022-12-18T08:18:55;102864.53;;;-7.55;100.00
61472;BME280;47337;54.068;12.114;2022-12-18T08:21:29;102864.91;;;-7.59;100.00
61472;BME280;47337;54.068;12.114;2022-12-18T08:23:57;102876.16;;;-7.43;100.00
61472;BME280;47337;54.068;12.114;2022-12-18T08:26:27;102878.84;;;-7.34;100.00
61472;BME280;47337;54.068;12.114;2022-12-18T08:28:55;102878.13;;;-7.33;100.00
61472;BME280;47337;54.068;12.114;2022-12-18T08:31:21;102865.53;;;-7.31;100.00
61472;BME280;47337;54.068;12.114;2022-12-18T08:33:49;102874.25;;;-7.22;100.00
61472;BME280;47337;54.068;12.114;2022-12-18T08:36:15;102868.63;;;-6.97;100.00
61472;BME280;47337;54.068;12.114;2022-12-18T08:38:41;102874.88;;;-7.02;100.00
61472;BME280;47337;54.068;12.114;2022-12-18T08:41:08;102873.59;;;-7.06;100.00
61472;BME280;47337;54.068;12.114;2022-12-18T08:43:34;102882.91;;;-6.76;100.00
61472;BME280;47337;54.068;12.114;2022-12-18T08:46:20;102890.91;;;-6.73;100.00
61472;BME280;47337;54.068;12.114;2022-12-18T08:48:46;102884.53;;;-6.77;100.00
61472;BME280;47337;54.068;12.114;2022-12-18T08:51:15;102891.94;;;-6.64;100.00
61472;BME280;47337;54.068;12.114;2022-12-18T08:53:40;102885.94;;;-6.65;100.00
61472;BME280;47337;54.068;12.114;2022-12-18T08:56:07;102887.56;;;-6.65;100.00
61472;BME280;47337;54.068;12.114;2022-12-18T08:58:32;102879.66;;;-6.52;100.00
61472;BME280;47337;54.068;12.114;2022-12-18T09:01:01;102892.81;;;-6.56;100.00
61472;BME280;47337;54.068;12.114;2022-12-18T09:03:27;102898.25;;;-6.53;100.00
61472;BME280;47337;54.068;12.114;2022-12-18T09:05:52;102896.56;;;-6.46;100.00
61472;BME280;47337;54.068;12.114;2022-12-18T09:08:17;102898.72;;;-6.42;100.00
61472;BME280;47337;54.068;12.114;2022-12-18T09:10:48;102903.69;;;-6.20;100.00
61472;BME280;47337;54.068;12.114;2022-12-18T09:13:16;102900.78;;;-6.23;100.00
61472;BME280;47337;54.068;12.114;2022-12-18T09:18:11;102906.56;;;-5.95;100.00
61472;BME280;47337;54.068;12.114;2022-12-18T09:20:41;102910.28;;;-5.84;100.00
61472;BME280;47337;54.068;12.114;2022-12-18T09:23:07;102910.78;;;-5.95;100.00
61472;BME280;47337;54.068;12.114;2022-12-18T09:25:36;102909.91;;;-5.64;100.00
61472;BME280;47337;54.068;12.114;2022-12-18T09:28:12;102909.16;;;-5.47;100.00
61472;BME280;47337;54.068;12.114;2022-12-18T09:30:43;102909.22;;;-5.39;100.00
61472;BME280;47337;54.068;12.114;2022-12-18T09:33:11;102901.56;;;-5.23;100.00
61472;BME280;47337;54.068;12.114;2022-12-18T09:35:42;102901.63;;;-5.14;100.00
61472;BME280;47337;54.068;12.114;2022-12-18T09:38:09;102910.56;;;-5.27;100.00
61472;BME280;47337;54.068;12.114;2022-12-18T09:40:41;102901.31;;;-5.18;100.00
61472;BME280;47337;54.068;12.114;2022-12-18T09:43:16;102900.31;;;-5.11;100.00
61472;BME280;47337;54.068;12.114;2022-12-18T09:45:48;102898.16;;;-5.15;100.00
61472;BME280;47337;54.068;12.114;2022-12-18T09:48:35;102900.91;;;-5.13;100.00
61472;BME280;47337;54.068;12.114;2022-12-18T09:53:47;102889.44;;;-5.33;100.00
61472;BME280;47337;54.068;12.114;2022-12-18T09:56:19;102888.53;;;-5.33;100.00
61472;BME280;47337;54.068;12.114;2022-12-18T10:01:21;102889.78;;;-5.30;100.00
61472;BME280;47337;54.068;12.114;2022-12-18T10:03:48;102884.97;;;-5.27;100.00
61472;BME280;47337;54.068;12.114;2022-12-18T10:06:14;102888.00;;;-5.06;100.00
61472;BME280;47337;54.068;12.114;2022-12-18T10:11:26;102882.63;;;-5.01;100.00
61472;BME280;47337;54.068;12.114;2022-12-18T10:14:01;102878.19;;;-4.70;100.00
61472;BME280;47337;54.068;12.114;2022-12-18T10:22:19;102885.47;;;-4.33;100.00
61472;BME280;47337;54.068;12.114;2022-12-18T10:27:25;102889.06;;;-4.07;100.00
61472;BME280;47337;54.068;12.114;2022-12-18T10:29:54;102885.13;;;-4.12;100.00
61472;BME280;47337;54.068;12.114;2022-12-18T10:32:23;102892.63;;;-4.22;100.00
61472;BME280;47337;54.068;12.114;2022-12-18T10:34:54;102885.75;;;-4.15;100.00
61472;BME280;47337;54.068;12.114;2022-12-18T10:37:23;102887.38;;;-4.15;100.00
61472;BME280;47337;54.068;12.114;2022-12-18T10:40:14;102887.09;;;-4.43;100.00
61472;BME280;47337;54.068;12.114;2022-12-18T10:42:41;102886.91;;;-4.44;100.00
61472;BME280;47337;54.068;12.114;2022-12-18T10:47:43;102890.88;;;-4.15;100.00
61472;BME280;47337;54.068;12.114;2022-12-18T10:50:19;102891.34;;;-4.01;100.00
61472;BME280;47337;54.068;12.114;2022-12-18T10:52:58;102891.09;;;-3.96;100.00
61472;BME280;47337;54.068;12.114;2022-12-18T10:55:30;102886.41;;;-3.91;100.00
61472;BME280;47337;54.068;12.114;2022-12-18T10:58:13;102880.84;;;-3.87;100.00
61472;BME280;47337;54.068;12.114;2022-12-18T11:00:41;102886.47;;;-3.83;100.00
61472;BME280;47337;54.068;12.114;2022-12-18T11:03:30;102885.22;;;-3.86;100.00
61472;BME280;47337;54.068;12.114;2022-12-18T11:08:35;102884.66;;;-3.84;100.00
61472;BME280;47337;54.068;12.114;2022-12-18T11:11:02;102881.03;;;-3.69;100.00
61472;BME280;47337;54.068;12.114;2022-12-18T11:13:29;102871.06;;;-3.83;100.00
61472;BME280;47337;54.068;12.114;2022-12-18T11:15:55;102879.22;;;-3.78;100.00
61472;BME280;47337;54.068;12.114;2022-12-18T11:18:32;102881.69;;;-3.62;100.00
61472;BME280;47337;54.068;12.114;2022-12-18T11:21:07;102878.06;;;-3.47;100.00
61472;BME280;47337;54.068;12.114;2022-12-18T11:23:34;102876.25;;;-3.57;100.00
61472;BME280;47337;54.068;12.114;2022-12-18T11:26:02;102874.91;;;-3.62;100.00
61472;BME280;47337;54.068;12.114;2022-12-18T11:28:35;102878.81;;;-3.65;100.00
61472;BME280;47337;54.068;12.114;2022-12-18T11:34:10;102874.06;;;-3.78;100.00
61472;BME280;47337;54.068;12.114;2022-12-18T11:36:45;102878.41;;;-3.94;100.00
61472;BME280;47337;54.068;12.114;2022-12-18T11:39:22;102874.38;;;-3.84;100.00
61472;BME280;47337;54.068;12.114;2022-12-18T11:41:53;102881.16;;;-3.93;100.00
61472;BME280;47337;54.068;12.114;2022-12-18T11:44:59;102882.47;;;-4.05;100.00
61472;BME280;47337;54.068;12.114;2022-12-18T11:53:02;102870.94;;;-4.17;100.00
61472;BME280;47337;54.068;12.114;2022-12-18T12:00:30;102863.03;;;-3.94;100.00
61472;BME280;47337;54.068;12.114;2022-12-18T12:05:56;102866.50;;;-3.94;100.00
61472;BME280;47337;54.068;12.114;2022-12-18T12:08:43;102858.66;;;-3.87;100.00
61472;BME280;47337;54.068;12.114;2022-12-18T12:11:39;102858.41;;;-3.73;100.00
61472;BME280;47337;54.068;12.114;2022-12-18T12:27:49;102851.81;;;-3.27;100.00
61472;BME280;47337;54.068;12.114;2022-12-18T12:30:22;102847.88;;;-3.24;100.00
61472;BME280;47337;54.068;12.114;2022-12-18T12:38:54;102848.78;;;-2.89;100.00
61472;BME280;47337;54.068;12.114;2022-12-18T12:41:25;102841.53;;;-3.02;100.00
61472;BME280;47337;54.068;12.114;2022-12-18T12:44:19;102840.66;;;-3.11;100.00
61472;BME280;47337;54.068;12.114;2022-12-18T12:46:50;102842.44;;;-3.44;100.00
61472;BME280;47337;54.068;12.114;2022-12-18T12:49:27;102843.19;;;-3.54;100.00
61472;BME280;47337;54.068;12.114;2022-12-18T12:52:37;102838.81;;;-3.63;100.00
61472;BME280;47337;54.068;12.114;2022-12-18T12:55:04;102843.94;;;-3.72;100.00
61472;BME280;47337;54.068;12.114;2022-12-18T12:57:54;102847.25;;;-3.39;100.00
61472;BME280;47337;54.068;12.114;2022-12-18T13:00:23;102847.00;;;-3.42;100.00
61472;BME280;47337;54.068;12.114;2022-12-18T13:03:15;102852.13;;;-3.50;100.00
61472;BME280;47337;54.068;12.114;2022-12-18T13:05:52;102839.13;;;-3.60;100.00
61472;BME280;47337;54.068;12.114;2022-12-18T13:08:28;102827.97;;;-3.52;100.00
61472;BME280;47337;54.068;12.114;2022-12-18T13:10:55;102829.28;;;-3.56;100.00
61472;BME280;47337;54.068;12.114;2022-12-18T13:16:18;102831.53;;;-3.59;100.00
61472;BME280;47337;54.068;12.114;2022-12-18T13:19:03;102826.72;;;-3.56;100.00
61472;BME280;47337;54.068;12.114;2022-12-18T13:21:30;102809.69;;;-3.55;100.00
61472;BME280;47337;54.068;12.114;2022-12-18T13:24:24;102804.53;;;-3.73;100.00
61472;BME280;47337;54.068;12.114;2022-12-18T13:26:53;102797.72;;;-3.81;100.00
61472;BME280;47337;54.068;12.114;2022-12-18T13:29:43;102799.25;;;-3.74;100.00
61472;BME280;47337;54.068;12.114;2022-12-18T13:32:24;102798.94;;;-3.77;100.00
61472;BME280;47337;54.068;12.114;2022-12-18T13:35:53;102791.06;;;-3.79;100.00
61472;BME280;47337;54.068;12.114;2022-12-18T13:37:57;102786.41;;;-3.83;100.00
61472;BME280;47337;54.068;12.114;2022-12-18T13:45:49;102761.78;;;-3.81;100.00
61472;BME280;47337;54.068;12.114;2022-12-18T13:48:21;102742.81;;;-3.83;100.00
61472;BME280;47337;54.068;12.114;2022-12-18T13:50:49;102730.41;;;-3.87;100.00
61472;BME280;47337;54.068;12.114;2022-12-18T13:53:24;102734.94;;;-3.84;100.00
61472;BME280;47337;54.068;12.114;2022-12-18T13:55:51;102745.81;;;-3.87;100.00
61472;BME280;47337;54.068;12.114;2022-12-18T13:58:17;102740.66;;;-3.95;100.00
61472;BME280;47337;54.068;12.114;2022-12-18T14:00:43;102741.59;;;-3.95;100.00
61472;BME280;47337;54.068;12.114;2022-12-18T14:03:24;102760.59;;;-3.93;100.00
61472;BME280;47337;54.068;12.114;2022-12-18T14:05:59;102760.59;;;-3.93;100.00
61472;BME280;47337;54.068;12.114;2022-12-18T14:08:27;102765.72;;;-3.93;100.00
61472;BME280;47337;54.068;12.114;2022-12-18T14:10:56;102770.53;;;-3.96;100.00
61472;BME280;47337;54.068;12.114;2022-12-18T14:13:29;102761.78;;;-3.98;100.00
61472;BME280;47337;54.068;12.114;2022-12-18T14:15:56;102761.19;;;-4.04;100.00
61472;BME280;47337;54.068;12.114;2022-12-18T14:18:38;102758.13;;;-4.17;100.00
61472;BME280;47337;54.068;12.114;2022-12-18T14:21:20;102753.00;;;-4.17;100.00